Time;durP1;ratioP1;P1;durP2;ratioP2;P2;SDS_P1;SDS_P2;PMS_P1;PMS_P2;Temp;Humidity;BMP_temperature;BMP_pressure;BME280_temperature;BME280_humidity;BME280_pressure;Samples;Min_cycle;Max_cycle;Signal;HPM_P1;HPM_P2
2022/07/28 00:00:26;;;;;;;2.47;1.65;;;13.40;99.90;;;;;;5097640;28;20369;-71
2022/07/28 00:02:52;;;;;;;5.50;2.10;;;13.40;99.90;;;;;;5097859;28;20373;-70
2022/07/28 00:05:18;;;;;;;4.07;2.08;;;13.40;99.90;;;;;;5097676;28;20127;-71
2022/07/28 00:07:44;;;;;;;4.90;2.15;;;13.40;99.90;;;;;;5098007;28;20365;-68
2022/07/28 00:10:10;;;;;;;4.38;2.10;;;13.30;99.90;;;;;;5097623;28;20043;-68
2022/07/28 00:12:36;;;;;;;4.40;2.20;;;13.30;99.90;;;;;;5097584;28;20036;-70
2022/07/28 00:15:02;;;;;;;9.07;2.35;;;13.30;99.90;;;;;;5097421;28;20054;-71
2022/07/28 00:17:28;;;;;;;4.43;2.15;;;13.30;99.90;;;;;;5097413;28;20083;-71
2022/07/28 00:19:53;;;;;;;3.38;1.83;;;13.30;99.90;;;;;;5097520;28;20086;-71
2022/07/28 00:22:19;;;;;;;2.92;2.00;;;13.30;99.90;;;;;;5097363;28;20047;-70
2022/07/28 00:24:45;;;;;;;3.65;2.25;;;13.30;99.90;;;;;;5097391;28;20048;-68
2022/07/28 00:27:10;;;;;;;4.22;2.13;;;13.30;99.90;;;;;;5097249;28;20083;-70
2022/07/28 00:29:36;;;;;;;2.90;2.15;;;13.20;99.90;;;;;;5096758;28;20095;-72
2022/07/28 00:32:01;;;;;;;3.47;1.75;;;13.30;99.90;;;;;;5097212;28;20101;-69
2022/07/28 00:34:27;;;;;;;5.45;2.13;;;13.20;99.90;;;;;;5096833;28;20060;-68
2022/07/28 00:36:52;;;;;;;4.13;1.92;;;13.30;99.90;;;;;;5079347;28;20048;-71
2022/07/28 00:39:18;;;;;;;4.25;1.90;;;13.30;99.90;;;;;;5097180;28;20040;-71
2022/07/28 00:41:44;;;;;;;3.78;2.28;;;13.20;99.90;;;;;;5097048;28;20466;-68
2022/07/28 00:44:09;;;;;;;4.22;2.30;;;13.20;99.90;;;;;;5097126;28;20051;-68
2022/07/28 00:46:35;;;;;;;2.50;1.52;;;13.20;99.90;;;;;;5096689;28;20032;-68
2022/07/28 00:49:01;;;;;;;3.47;1.77;;;13.20;99.90;;;;;;5096799;28;20378;-70
2022/07/28 00:51:27;;;;;;;4.70;2.13;;;13.20;99.90;;;;;;5096489;28;20416;-68
2022/07/28 00:53:53;;;;;;;2.92;1.67;;;13.20;99.90;;;;;;5096802;28;20192;-71
2022/07/28 00:56:20;;;;;;;4.18;1.85;;;13.20;99.90;;;;;;5078716;28;20051;-70
2022/07/28 00:58:46;;;;;;;5.00;2.15;;;13.20;99.90;;;;;;5096644;28;20358;-68
2022/07/28 01:01:14;;;;;;;4.38;2.03;;;13.10;99.90;;;;;;5096428;28;20065;-69
2022/07/28 01:03:42;;;;;;;2.88;1.98;;;13.10;99.90;;;;;;5095709;28;20148;-69
2022/07/28 01:06:30;;;;;;;3.65;1.98;;;13.10;99.90;;;;;;5096840;28;20404;-72
2022/07/28 01:09:17;;;;;;;3.80;2.10;;;13.10;99.90;;;;;;5096537;28;20418;-70
2022/07/28 01:12:27;;;;;;;5.63;2.00;;;13.10;99.90;;;;;;5096185;28;20082;-71
2022/07/28 01:15:32;;;;;;;5.07;1.95;;;13.00;99.90;;;;;;5078735;28;20100;-70
2022/07/28 01:18:10;;;;;;;2.63;1.98;;;13.10;99.90;;;;;;5096504;28;20084;-70
2022/07/28 01:20:48;;;;;;;3.63;1.95;;;13.10;99.90;;;;;;5096143;28;20461;-70
2022/07/28 01:23:30;;;;;;;3.95;1.65;;;13.10;99.90;;;;;;5096154;28;20036;-69
2022/07/28 01:26:20;;;;;;;3.58;1.90;;;13.10;99.90;;;;;;5096433;28;20040;-70
2022/07/28 01:28:51;;;;;;;3.00;1.77;;;13.00;99.90;;;;;;5096148;28;20052;-70
2022/07/28 01:31:23;;;;;;;4.53;2.10;;;13.00;99.90;;;;;;5096053;28;20055;-69
2022/07/28 01:33:55;;;;;;;4.90;1.80;;;13.10;99.90;;;;;;5095936;28;20182;-72
2022/07/28 01:36:25;;;;;;;4.57;1.98;;;13.00;99.90;;;;;;5078584;28;20053;-70
2022/07/28 01:38:51;;;;;;;3.72;2.13;;;13.10;99.90;;;;;;5095796;28;20044;-70
2022/07/28 01:41:22;;;;;;;2.47;1.40;;;13.00;99.90;;;;;;5095832;28;20044;-69
2022/07/28 01:44:07;;;;;;;2.08;1.67;;;13.00;99.90;;;;;;5077995;28;20052;-71
2022/07/28 01:46:34;;;;;;;3.33;1.98;;;12.90;99.90;;;;;;5095845;28;20123;-70
2022/07/28 01:49:01;;;;;;;2.97;1.83;;;12.90;99.90;;;;;;5095785;28;20058;-68
2022/07/28 01:51:29;;;;;;;5.70;2.53;;;12.90;99.90;;;;;;5095713;28;20044;-69
2022/07/28 01:53:57;;;;;;;3.20;2.00;;;12.90;99.90;;;;;;5095822;28;20446;-70
2022/07/28 01:56:24;;;;;;;4.07;2.00;;;12.90;99.90;;;;;;5095415;28;20044;-70
2022/07/28 01:58:51;;;;;;;3.25;1.95;;;12.80;99.90;;;;;;5095701;28;20043;-69
2022/07/28 02:01:19;;;;;;;3.53;2.15;;;12.80;99.90;;;;;;5095519;28;20036;-68
2022/07/28 02:03:46;;;;;;;5.18;2.10;;;12.80;99.90;;;;;;5095447;28;20044;-70
2022/07/28 02:06:14;;;;;;;3.72;1.80;;;12.80;99.90;;;;;;5078022;28;20091;-68
2022/07/28 02:08:41;;;;;;;6.10;1.92;;;12.80;99.90;;;;;;5095566;28;20346;-70
2022/07/28 02:13:52;;;;;;;6.82;2.05;;;12.70;99.90;;;;;;5095178;28;20405;-71
2022/07/28 02:16:22;;;;;;;5.40;1.85;;;12.80;99.90;;;;;;5095424;28;20044;-70
2022/07/28 02:18:50;;;;;;;7.65;2.33;;;12.70;99.90;;;;;;5095192;28;20438;-71
2022/07/28 02:21:17;;;;;;;5.60;1.98;;;12.70;99.90;;;;;;5095326;28;20120;-71
2022/07/28 02:23:46;;;;;;;1.75;1.30;;;12.70;99.90;;;;;;5077594;28;20105;-69
2022/07/28 02:26:13;;;;;;;2.58;1.75;;;12.70;99.90;;;;;;5095271;28;20040;-68
2022/07/28 02:28:42;;;;;;;4.07;1.70;;;12.70;99.90;;;;;;5094937;28;20153;-70
2022/07/28 02:31:29;;;;;;;4.05;2.00;;;12.60;99.90;;;;;;5095156;28;20048;-71
2022/07/28 02:33:59;;;;;;;5.30;2.00;;;12.60;99.90;;;;;;5095010;28;20123;-68
2022/07/28 02:36:27;;;;;;;3.03;1.90;;;12.60;99.90;;;;;;5095650;28;20071;-69
2022/07/28 02:38:58;;;;;;;4.03;1.90;;;12.60;99.90;;;;;;5095238;28;20048;-70
2022/07/28 02:41:27;;;;;;;2.47;1.92;;;12.60;99.90;;;;;;5095101;28;20052;-69
2022/07/28 02:43:57;;;;;;;6.50;2.10;;;12.60;99.90;;;;;;5095077;28;20044;-69
2022/07/28 02:46:27;;;;;;;5.60;2.40;;;12.60;99.90;;;;;;5095163;28;20043;-69
2022/07/28 02:49:03;;;;;;;2.90;1.70;;;12.60;99.90;;;;;;5095190;28;20063;-68
2022/07/28 02:51:32;;;;;;;4.57;1.90;;;12.60;99.90;;;;;;5094995;28;20119;-69
2022/07/28 02:53:58;;;;;;;4.97;1.92;;;12.60;99.90;;;;;;5094799;28;20370;-70
2022/07/28 02:56:25;;;;;;;3.72;1.40;;;12.60;99.90;;;;;;5095006;28;20403;-69
2022/07/28 02:58:53;;;;;;;3.50;1.58;;;12.60;99.90;;;;;;5094865;28;20043;-69
2022/07/28 03:01:20;;;;;;;2.40;1.60;;;12.60;99.90;;;;;;5094964;28;20356;-70
2022/07/28 03:03:47;;;;;;;3.20;1.80;;;12.50;99.90;;;;;;5077265;28;20087;-70
2022/07/28 03:06:15;;;;;;;3.22;1.70;;;12.60;99.90;;;;;;5095033;28;20044;-68
2022/07/28 03:08:41;;;;;;;5.40;1.90;;;12.60;99.90;;;;;;5094830;28;20044;-69
2022/07/28 03:11:08;;;;;;;3.20;1.88;;;12.50;99.90;;;;;;5094970;28;20362;-71
2022/07/28 03:13:33;;;;;;;3.60;1.88;;;12.50;99.90;;;;;;5076940;28;20052;-71
2022/07/28 03:15:59;;;;;;;3.63;1.73;;;12.50;99.90;;;;;;5076856;28;20059;-68
2022/07/28 03:18:27;;;;;;;1.98;1.65;;;12.40;99.90;;;;;;5094817;28;20127;-68
2022/07/28 03:20:53;;;;;;;3.17;1.67;;;12.40;99.90;;;;;;5094653;28;20343;-68
2022/07/28 03:23:21;;;;;;;4.03;1.70;;;12.40;99.90;;;;;;5094698;28;20050;-68
2022/07/28 03:25:50;;;;;;;3.75;1.65;;;12.40;99.90;;;;;;5095763;28;20362;-71
2022/07/28 03:28:19;;;;;;;3.92;1.88;;;12.40;99.90;;;;;;5098668;28;20205;-70
2022/07/28 03:30:50;;;;;;;5.85;2.50;;;12.40;99.90;;;;;;5098527;28;20123;-69
2022/07/28 03:33:17;;;;;;;3.13;2.03;;;12.40;99.90;;;;;;5080523;28;20067;-70
2022/07/28 03:35:47;;;;;;;6.93;2.10;;;12.50;99.90;;;;;;5098280;28;20075;-70
2022/07/28 03:38:17;;;;;;;4.60;1.65;;;12.40;99.90;;;;;;5098550;28;20102;-70
2022/07/28 03:40:45;;;;;;;1.90;1.60;;;12.40;99.90;;;;;;5098205;28;20040;-70
2022/07/28 03:43:13;;;;;;;2.47;1.92;;;12.30;99.90;;;;;;5098234;28;20404;-68
2022/07/28 03:45:40;;;;;;;3.30;1.58;;;12.30;99.90;;;;;;5080392;28;20047;-68
2022/07/28 03:48:06;;;;;;;6.32;1.98;;;12.30;99.90;;;;;;5080455;28;20075;-70
2022/07/28 03:50:32;;;;;;;3.25;1.77;;;12.30;99.90;;;;;;5080217;28;20084;-68
2022/07/28 03:52:59;;;;;;;4.18;2.75;;;12.30;99.90;;;;;;5098149;28;20128;-68
2022/07/28 03:55:25;;;;;;;4.57;2.20;;;12.20;99.90;;;;;;5098091;28;20040;-70
2022/07/28 03:57:52;;;;;;;4.85;1.95;;;12.20;99.90;;;;;;5098001;28;20423;-70
2022/07/28 04:00:19;;;;;;;2.72;1.80;;;12.20;99.90;;;;;;5097765;28;20062;-70
2022/07/28 04:02:46;;;;;;;1.63;1.50;;;12.20;99.90;;;;;;5097671;28;20117;-70
2022/07/28 04:05:13;;;;;;;5.50;2.22;;;12.20;99.90;;;;;;5079960;28;20044;-71
2022/07/28 04:07:40;;;;;;;4.95;1.90;;;12.20;99.90;;;;;;5097719;28;20164;-70
2022/07/28 04:10:08;;;;;;;3.42;2.35;;;12.30;99.90;;;;;;5097384;28;20044;-69
2022/07/28 04:12:56;;;;;;;3.78;2.03;;;12.30;99.90;;;;;;5097564;28;20050;-68
2022/07/28 04:15:22;;;;;;;4.45;2.13;;;12.30;99.90;;;;;;5097591;28;20090;-71
2022/07/28 04:17:49;;;;;;;6.22;2.28;;;12.20;99.90;;;;;;5097544;28;20113;-69
2022/07/28 04:20:16;;;;;;;2.63;2.05;;;12.30;99.90;;;;;;5080166;28;20362;-70
2022/07/28 04:22:43;;;;;;;2.78;1.88;;;12.30;99.90;;;;;;5097444;28;20097;-70
2022/07/28 04:25:11;;;;;;;4.30;1.90;;;12.20;99.90;;;;;;5097275;28;20044;-68
2022/07/28 04:27:38;;;;;;;3.40;2.38;;;12.20;99.90;;;;;;5097233;28;20044;-69
2022/07/28 04:30:06;;;;;;;3.90;2.42;;;12.10;99.90;;;;;;5097396;28;20366;-68
2022/07/28 04:32:31;;;;;;;2.42;1.98;;;12.20;99.90;;;;;;5097155;28;20123;-70
2022/07/28 04:34:57;;;;;;;4.53;2.58;;;12.20;99.90;;;;;;5097132;28;20177;-68
2022/07/28 04:37:23;;;;;;;3.92;2.10;;;12.20;99.90;;;;;;5097340;28;20118;-68
2022/07/28 04:39:49;;;;;;;4.78;2.05;;;12.20;99.90;;;;;;5097022;28;20051;-69
2022/07/28 04:42:17;;;;;;;2.75;1.80;;;12.30;99.90;;;;;;5096849;28;20063;-70
2022/07/28 04:44:44;;;;;;;4.35;2.50;;;12.30;99.90;;;;;;5096976;28;20047;-70
2022/07/28 04:47:11;;;;;;;3.92;2.40;;;12.30;99.90;;;;;;5079123;28;20118;-70
2022/07/28 04:49:37;;;;;;;6.03;2.70;;;12.30;99.90;;;;;;5096947;28;20048;-69
2022/07/28 04:52:03;;;;;;;5.45;2.65;;;12.30;99.90;;;;;;5096897;28;20048;-70
2022/07/28 04:54:29;;;;;;;4.35;2.90;;;12.30;99.90;;;;;;5097038;28;20076;-69
2022/07/28 04:56:54;;;;;;;4.03;2.30;;;12.30;99.90;;;;;;5096620;28;20132;-70
2022/07/28 04:59:20;;;;;;;6.95;2.10;;;12.40;99.90;;;;;;5096522;28;20036;-72
2022/07/28 05:01:46;;;;;;;6.10;2.63;;;12.50;99.90;;;;;;5096711;28;20043;-71
2022/07/28 05:04:11;;;;;;;2.85;2.33;;;12.50;99.90;;;;;;5096669;28;20070;-70
2022/07/28 05:06:37;;;;;;;4.55;2.65;;;12.60;99.90;;;;;;5096590;28;20055;-69
2022/07/28 05:09:02;;;;;;;4.38;2.22;;;12.70;99.90;;;;;;5096352;28;20044;-71
2022/07/28 05:11:28;;;;;;;5.75;2.25;;;12.80;99.90;;;;;;5078920;28;20056;-71
2022/07/28 05:13:53;;;;;;;4.10;2.28;;;12.90;99.90;;;;;;5096231;28;20048;-70
2022/07/28 05:16:19;;;;;;;3.88;2.50;;;13.10;99.90;;;;;;5096522;28;20087;-68
2022/07/28 05:18:44;;;;;;;4.57;2.60;;;13.10;99.90;;;;;;5096367;28;20036;-71
2022/07/28 05:21:10;;;;;;;5.65;2.80;;;13.30;99.90;;;;;;5096343;28;20048;-70
2022/07/28 05:23:36;;;;;;;4.85;2.30;;;13.40;99.90;;;;;;5096168;28;20063;-69
2022/07/28 05:26:03;;;;;;;5.93;3.00;;;13.50;99.90;;;;;;5096049;28;20040;-70
2022/07/28 05:28:29;;;;;;;5.25;2.80;;;13.70;99.90;;;;;;5095938;28;20469;-70
2022/07/28 05:30:54;;;;;;;6.43;3.38;;;13.80;99.90;;;;;;5096114;28;20044;-69
2022/07/28 05:33:20;;;;;;;4.10;2.72;;;13.90;99.90;;;;;;5095985;28;20450;-68
2022/07/28 05:35:53;;;;;;;5.03;3.30;;;13.90;99.90;;;;;;5095912;28;20139;-71
2022/07/28 05:38:19;;;;;;;6.47;3.00;;;14.00;99.90;;;;;;5095979;28;20048;-70
2022/07/28 05:40:47;;;;;;;6.50;2.90;;;14.20;99.90;;;;;;5096079;28;20044;-70
2022/07/28 05:43:12;;;;;;;4.75;3.42;;;14.30;99.90;;;;;;5095817;28;20040;-69
2022/07/28 05:45:38;;;;;;;5.00;3.33;;;14.40;99.90;;;;;;5096079;28;20044;-69
2022/07/28 05:48:04;;;;;;;7.10;3.30;;;14.40;99.90;;;;;;5095444;28;20360;-68
2022/07/28 05:50:30;;;;;;;3.63;2.67;;;14.50;99.90;;;;;;5095715;28;20123;-70
2022/07/28 05:52:55;;;;;;;4.85;3.08;;;14.60;99.90;;;;;;5095668;28;20056;-69
2022/07/28 05:55:21;;;;;;;6.50;3.10;;;14.70;99.90;;;;;;5095561;28;20040;-71
2022/07/28 05:57:47;;;;;;;7.63;3.40;;;14.80;99.90;;;;;;5095544;28;20044;-71
2022/07/28 06:00:15;;;;;;;4.93;3.15;;;14.90;99.90;;;;;;5095631;28;20453;-70
2022/07/28 06:02:44;;;;;;;5.03;2.75;;;15.00;99.90;;;;;;5095685;28;20036;-70
2022/07/28 06:05:10;;;;;;;5.90;2.88;;;15.00;99.90;;;;;;5095736;28;20485;-69
2022/07/28 06:07:36;;;;;;;13.00;3.13;;;15.20;99.90;;;;;;5095668;28;20097;-71
2022/07/28 06:10:02;;;;;;;4.88;3.00;;;15.20;99.90;;;;;;5078193;28;20332;-69
2022/07/28 06:12:28;;;;;;;5.47;3.90;;;15.30;99.90;;;;;;5095258;28;20052;-71
2022/07/28 06:14:53;;;;;;;4.90;3.25;;;15.30;99.90;;;;;;5095474;28;20044;-70
2022/07/28 06:17:19;;;;;;;5.22;3.22;;;15.40;99.90;;;;;;5095373;28;20353;-71
2022/07/28 06:19:44;;;;;;;5.18;3.42;;;15.40;99.90;;;;;;5095268;28;20047;-68
2022/07/28 06:22:10;;;;;;;8.65;2.95;;;15.40;99.90;;;;;;5095309;28;20055;-69
2022/07/28 06:24:36;;;;;;;5.93;3.10;;;15.40;99.90;;;;;;5095160;28;20446;-70
2022/07/28 06:27:02;;;;;;;7.97;3.83;;;15.40;99.90;;;;;;5095416;28;20040;-69
2022/07/28 06:29:29;;;;;;;7.38;3.10;;;15.40;99.90;;;;;;5095073;28;20060;-69
2022/07/28 06:31:54;;;;;;;7.10;3.85;;;15.40;99.90;;;;;;5095295;28;20040;-69
2022/07/28 06:34:20;;;;;;;5.72;3.42;;;15.40;99.90;;;;;;5077426;28;20121;-70
2022/07/28 06:36:46;;;;;;;6.65;3.40;;;15.60;99.90;;;;;;5095155;28;20113;-70
2022/07/28 06:39:12;;;;;;;8.43;4.30;;;15.50;99.90;;;;;;5095321;28;20100;-70
2022/07/28 06:41:43;;;;;;;7.50;3.45;;;15.60;99.90;;;;;;5095331;28;20446;-71
2022/07/28 06:44:09;;;;;;;4.75;2.90;;;15.60;99.90;;;;;;5094853;28;20450;-69
2022/07/28 06:46:35;;;;;;;7.95;3.40;;;15.60;99.90;;;;;;5095038;28;20048;-70
2022/07/28 06:49:01;;;;;;;6.05;2.88;;;15.70;99.90;;;;;;5095057;28;20059;-70
2022/07/28 06:51:27;;;;;;;8.60;3.53;;;15.70;99.90;;;;;;5094829;28;20044;-69
2022/07/28 06:53:54;;;;;;;4.82;3.05;;;15.70;99.90;;;;;;5077207;28;20499;-69
2022/07/28 06:56:20;;;;;;;8.88;3.47;;;15.70;99.90;;;;;;5094842;28;20442;-71
2022/07/28 06:58:46;;;;;;;5.10;3.33;;;15.80;99.90;;;;;;5094912;28;20040;-73
2022/07/28 07:01:13;;;;;;;7.32;3.60;;;15.90;99.90;;;;;;5096897;28;20040;-72
2022/07/28 07:03:41;;;;;;;5.68;3.63;;;15.90;99.90;;;;;;5099001;28;20070;-69
2022/07/28 07:06:07;;;;;;;8.70;3.63;;;16.00;99.90;;;;;;5098654;28;20055;-70
2022/07/28 07:08:33;;;;;;;7.70;3.92;;;15.90;99.90;;;;;;5098781;28;20128;-72
2022/07/28 07:10:59;;;;;;;5.95;3.50;;;16.00;99.90;;;;;;5098716;28;20048;-74
2022/07/28 07:13:25;;;;;;;6.85;3.97;;;16.10;99.90;;;;;;5098676;28;20050;-69
2022/07/28 07:15:50;;;;;;;6.47;3.75;;;16.10;99.90;;;;;;5098766;28;20043;-71
2022/07/28 07:18:16;;;;;;;5.80;3.15;;;16.10;99.90;;;;;;5098539;28;20048;-69
2022/07/28 07:20:42;;;;;;;5.15;3.30;;;16.20;99.90;;;;;;5098693;28;20051;-72
2022/07/28 07:23:07;;;;;;;7.65;3.60;;;16.20;99.90;;;;;;5062761;28;20385;-70
2022/07/28 07:25:33;;;;;;;5.63;3.30;;;16.20;99.90;;;;;;5098344;28;20040;-69
2022/07/28 07:27:59;;;;;;;8.77;3.80;;;16.20;99.90;;;;;;5098346;28;20044;-68
2022/07/28 07:30:24;;;;;;;5.43;3.20;;;16.30;99.90;;;;;;5098438;28;20056;-67
2022/07/28 07:32:50;;;;;;;6.85;2.95;;;16.30;99.90;;;;;;5098264;28;20055;-70
2022/07/28 07:35:16;;;;;;;4.13;2.88;;;16.20;99.90;;;;;;5097849;28;20050;-67
2022/07/28 07:37:42;;;;;;;8.40;3.00;;;16.30;99.90;;;;;;5098202;28;20070;-66
2022/07/28 07:40:08;;;;;;;8.38;3.08;;;16.30;99.90;;;;;;5080699;28;20051;-68
2022/07/28 07:42:33;;;;;;;8.10;3.00;;;16.30;99.90;;;;;;5080305;28;20125;-69
2022/07/28 07:44:59;;;;;;;7.13;2.75;;;16.30;99.90;;;;;;5098183;28;20040;-70
2022/07/28 07:47:25;;;;;;;5.57;2.20;;;16.40;99.90;;;;;;5098053;28;20101;-70
2022/07/28 07:49:50;;;;;;;6.13;1.73;;;16.40;99.90;;;;;;5098162;28;20051;-70
2022/07/28 07:52:16;;;;;;;1.77;1.20;;;16.40;99.90;;;;;;5080128;28;20059;-69
2022/07/28 07:54:42;;;;;;;10.25;2.47;;;16.50;99.90;;;;;;5080325;28;20095;-70
2022/07/28 07:57:08;;;;;;;4.05;2.25;;;16.60;99.90;;;;;;5097950;28;20032;-70
2022/07/28 07:59:34;;;;;;;6.28;2.20;;;16.70;99.90;;;;;;5097769;28;20415;-70
2022/07/28 08:02:00;;;;;;;3.15;2.00;;;16.60;99.90;;;;;;5097840;28;20098;-71
2022/07/28 08:04:25;;;;;;;4.60;1.98;;;16.80;99.90;;;;;;5097492;28;20043;-72
2022/07/28 08:06:51;;;;;;;4.47;1.67;;;16.80;99.90;;;;;;5097814;28;20135;-70
2022/07/28 08:09:18;;;;;;;2.72;1.42;;;16.80;99.90;;;;;;5097682;28;20361;-71
2022/07/28 08:11:43;;;;;;;5.45;1.77;;;17.10;99.90;;;;;;5097165;28;20040;-71
2022/07/28 08:14:09;;;;;;;2.85;1.50;;;17.20;99.90;;;;;;5097581;28;20097;-72
2022/07/28 08:16:35;;;;;;;4.60;1.85;;;17.30;99.90;;;;;;5097495;28;20040;-72
2022/07/28 08:19:01;;;;;;;4.15;1.70;;;17.40;99.90;;;;;;5079636;28;20044;-72
2022/07/28 08:21:27;;;;;;;3.95;1.60;;;17.60;99.90;;;;;;5097299;28;20058;-71
2022/07/28 08:23:54;;;;;;;2.97;1.90;;;17.70;99.90;;;;;;5097464;28;20351;-69
2022/07/28 08:26:21;;;;;;;4.88;1.65;;;17.60;99.90;;;;;;5097543;28;20036;-72
2022/07/28 08:28:47;;;;;;;4.03;1.83;;;17.70;99.90;;;;;;5097327;28;20051;-72
2022/07/28 08:31:12;;;;;;;3.60;1.83;;;17.90;99.90;;;;;;5097241;28;20050;-71
2022/07/28 08:33:38;;;;;;;3.15;1.15;;;18.00;99.90;;;;;;5096942;28;20056;-70
2022/07/28 08:36:04;;;;;;;2.90;1.40;;;18.00;99.90;;;;;;5096846;28;20101;-72
2022/07/28 08:38:29;;;;;;;3.53;1.45;;;18.10;99.90;;;;;;5079586;28;20048;-68
2022/07/28 08:40:57;;;;;;;6.43;2.47;;;18.20;99.90;;;;;;5096989;28;20040;-70
2022/07/28 08:43:33;;;;;;;9.20;2.00;;;18.20;99.90;;;;;;5097155;28;20382;-67
2022/07/28 08:46:00;;;;;;;3.92;1.75;;;18.20;99.90;;;;;;5097062;28;20044;-68
2022/07/28 08:48:30;;;;;;;2.63;1.40;;;18.20;99.90;;;;;;5096868;28;20367;-69
2022/07/28 08:51:02;;;;;;;5.70;1.55;;;18.10;99.90;;;;;;5079301;28;20063;-67
2022/07/28 08:53:29;;;;;;;6.05;1.60;;;18.20;99.90;;;;;;5096765;28;20052;-68
2022/07/28 08:56:08;;;;;;;4.50;1.40;;;18.20;99.90;;;;;;5096763;28;20050;-68
2022/07/28 08:58:35;;;;;;;2.90;1.20;;;18.20;99.90;;;;;;5096600;28;20079;-70
2022/07/28 09:01:02;;;;;;;3.35;1.55;;;18.20;99.90;;;;;;5096525;28;20046;-67
2022/07/28 09:03:28;;;;;;;5.18;1.73;;;18.20;99.90;;;;;;5078889;28;20454;-67
2022/07/28 09:05:56;;;;;;;2.50;1.45;;;18.20;99.90;;;;;;5096527;28;20040;-68
2022/07/28 09:08:22;;;;;;;3.20;1.60;;;18.20;99.90;;;;;;5096346;28;20054;-68
2022/07/28 09:10:48;;;;;;;3.17;1.77;;;18.20;99.90;;;;;;5096494;28;20082;-69
2022/07/28 09:13:15;;;;;;;2.70;1.42;;;18.10;99.90;;;;;;5096366;28;20103;-68
2022/07/28 09:15:44;;;;;;;2.60;1.70;;;18.00;99.90;;;;;;5078403;28;20425;-69
2022/07/28 09:18:13;;;;;;;5.35;1.73;;;18.10;99.90;;;;;;5096111;28;20445;-69
2022/07/28 09:20:39;;;;;;;3.92;1.50;;;18.10;99.90;;;;;;5096158;28;20499;-69
2022/07/28 09:23:06;;;;;;;3.30;1.60;;;18.10;99.90;;;;;;5095653;28;20326;-70
2022/07/28 09:25:33;;;;;;;4.20;1.80;;;18.10;99.90;;;;;;5096367;28;20048;-70
2022/07/28 09:28:10;;;;;;;3.75;1.65;;;18.10;99.90;;;;;;5062180;28;20056;-67
2022/07/28 09:30:40;;;;;;;6.13;1.92;;;18.20;99.90;;;;;;5096246;28;20056;-69
2022/07/28 09:33:21;;;;;;;2.38;1.40;;;18.20;99.90;;;;;;5096035;28;20048;-72
2022/07/28 09:35:52;;;;;;;2.72;1.65;;;18.30;99.90;;;;;;5096029;28;20047;-70
2022/07/28 09:38:20;;;;;;;3.50;1.63;;;18.30;99.90;;;;;;5095616;28;20461;-68
2022/07/28 09:40:56;;;;;;;3.55;1.52;;;18.40;99.90;;;;;;5095876;28;20043;-70
2022/07/28 09:43:43;;;;;;;2.97;1.52;;;18.50;99.90;;;;;;5078282;28;20089;-70
2022/07/28 09:46:17;;;;;;;2.75;1.40;;;18.50;99.90;;;;;;5096006;28;20362;-68
2022/07/28 09:48:48;;;;;;;;;;;18.60;99.90;;;;;;5078502;28;20055;-71
2022/07/28 09:51:18;;;;;;;5.72;1.75;;;18.60;99.90;;;;;;5095856;28;19973;-70
2022/07/28 09:53:44;;;;;;;12.02;2.03;;;18.60;99.90;;;;;;5095654;28;20052;-72
2022/07/28 09:56:10;;;;;;;4.78;2.20;;;18.70;99.90;;;;;;5095752;28;20040;-70
2022/07/28 09:58:38;;;;;;;2.95;1.55;;;18.70;99.90;;;;;;5095809;28;20486;-71
2022/07/28 10:01:09;;;;;;;4.70;1.80;;;18.80;99.90;;;;;;5095509;28;20066;-70
2022/07/28 10:03:36;;;;;;;6.03;2.42;;;18.80;99.90;;;;;;5095353;28;20044;-71
2022/07/28 10:06:10;;;;;;;2.92;1.48;;;18.80;99.90;;;;;;5077964;28;20079;-70
2022/07/28 10:08:49;;;;;;;2.25;1.60;;;18.90;99.90;;;;;;5095465;28;20070;-68
2022/07/28 10:11:23;;;;;;;4.35;1.75;;;18.90;99.90;;;;;;5095558;28;20054;-69
2022/07/28 10:13:57;;;;;;;4.30;1.50;;;19.00;99.90;;;;;;5095431;28;20055;-70
2022/07/28 10:16:25;;;;;;;5.22;1.35;;;19.10;99.90;;;;;;5095459;28;20040;-71
2022/07/28 10:18:51;;;;;;;4.50;1.98;;;19.10;99.90;;;;;;5095225;28;20435;-68
2022/07/28 10:21:19;;;;;;;5.78;1.65;;;19.00;99.90;;;;;;5095281;28;20081;-69
2022/07/28 10:24:05;;;;;;;3.15;1.30;;;19.00;99.90;;;;;;5095377;28;20043;-71
2022/07/28 10:26:36;;;;;;;7.68;1.73;;;19.00;99.90;;;;;;5095289;28;20048;-69
2022/07/28 10:29:06;;;;;;;3.63;1.83;;;19.00;99.90;;;;;;5095033;28;20095;-69
2022/07/28 10:31:37;;;;;;;3.67;1.90;;;18.90;99.90;;;;;;5095177;28;20048;-69
2022/07/28 10:34:06;;;;;;;4.07;1.98;;;18.90;99.90;;;;;;5095070;28;20508;-70
2022/07/28 10:36:33;;;;;;;4.45;1.75;;;18.90;99.90;;;;;;5101913;28;20051;-70
2022/07/28 10:39:04;;;;;;;2.05;1.48;;;18.90;99.90;;;;;;5101802;28;20067;-69
2022/07/28 10:41:37;;;;;;;4.85;1.95;;;19.00;99.90;;;;;;5101755;28;20044;-70
2022/07/28 10:44:03;;;;;;;2.90;1.52;;;19.10;99.90;;;;;;5102108;28;20036;-68
2022/07/28 10:46:29;;;;;;;3.60;1.40;;;19.00;99.90;;;;;;5101963;28;20129;-68
2022/07/28 10:48:56;;;;;;;3.20;1.48;;;19.10;99.90;;;;;;5101631;28;20090;-71
2022/07/28 10:51:22;;;;;;;6.28;2.15;;;19.30;99.90;;;;;;5101647;28;20051;-70
2022/07/28 10:54:07;;;;;;;5.38;1.45;;;19.30;99.90;;;;;;5101623;28;20043;-69
2022/07/28 10:56:33;;;;;;;2.63;1.50;;;19.40;99.90;;;;;;5101832;28;20051;-71
2022/07/28 10:59:11;;;;;;;3.95;1.67;;;19.40;99.90;;;;;;5101524;28;20353;-68
2022/07/28 11:01:38;;;;;;;4.13;1.60;;;19.40;99.90;;;;;;5101715;28;20050;-73
2022/07/28 11:04:05;;;;;;;3.28;1.48;;;19.40;99.90;;;;;;5101548;28;20048;-68
2022/07/28 11:06:39;;;;;;;4.53;1.83;;;19.40;99.90;;;;;;5101521;28;20048;-70
2022/07/28 11:09:16;;;;;;;2.80;1.63;;;19.50;99.90;;;;;;5102019;28;20044;-71
2022/07/28 11:11:57;;;;;;;2.28;1.67;;;19.60;99.90;;;;;;5101793;28;20109;-71
2022/07/28 11:14:23;;;;;;;5.70;1.92;;;19.90;99.90;;;;;;5101614;28;20055;-71
2022/07/28 11:16:49;;;;;;;1.90;1.40;;;20.00;99.90;;;;;;5101530;28;20044;-70
2022/07/28 11:19:17;;;;;;;5.88;1.75;;;20.00;99.90;;;;;;5101542;28;20115;-69
2022/07/28 11:22:13;;;;;;;2.88;1.67;;;20.00;99.90;;;;;;5101532;28;20354;-69
2022/07/28 11:25:00;;;;;;;2.30;1.67;;;20.30;99.90;;;;;;5083458;28;20086;-72
2022/07/28 11:27:41;;;;;;;4.15;1.40;;;20.60;99.90;;;;;;5101442;28;20203;-70
2022/07/28 11:30:07;;;;;;;1.77;1.10;;;20.70;99.90;;;;;;5101388;28;20056;-71
2022/07/28 11:32:54;;;;;;;1.05;0.95;;;20.70;99.90;;;;;;5101399;28;20044;-71
2022/07/28 11:35:24;;;;;;;1.98;0.80;;;20.80;99.90;;;;;;5101219;28;20457;-72
2022/07/28 11:38:01;;;;;;;1.33;1.00;;;20.70;99.90;;;;;;5101393;28;20063;-70
2022/07/28 11:40:34;;;;;;;1.85;1.00;;;20.60;99.90;;;;;;5083706;28;20462;-70
2022/07/28 11:43:30;;;;;;;2.28;1.30;;;20.60;99.90;;;;;;5083415;28;20048;-71
2022/07/28 11:46:05;;;;;;;2.60;1.15;;;20.50;98.90;;;;;;5099985;28;20350;-71
2022/07/28 11:48:31;;;;;;;2.38;1.10;;;20.40;99.30;;;;;;5098093;28;20040;-69
2022/07/28 11:51:03;;;;;;;2.05;1.10;;;20.40;99.70;;;;;;5098030;28;20164;-68
2022/07/28 11:53:35;;;;;;;3.13;1.20;;;20.40;99.90;;;;;;5097995;28;20087;-71
2022/07/28 11:56:02;;;;;;;2.25;1.40;;;20.40;99.90;;;;;;5080229;28;20059;-69
2022/07/28 11:58:28;;;;;;;2.10;1.42;;;20.40;99.90;;;;;;5097866;28;20059;-70
2022/07/28 12:01:13;;;;;;;4.80;1.98;;;20.40;99.90;;;;;;5097636;28;20048;-69
2022/07/28 12:03:41;;;;;;;3.42;1.50;;;20.30;99.90;;;;;;5080093;28;20098;-68
2022/07/28 12:06:07;;;;;;;2.95;1.40;;;20.30;99.90;;;;;;5097724;28;20047;-69
2022/07/28 12:08:51;;;;;;;3.67;1.70;;;20.30;99.90;;;;;;5080309;28;20048;-69
2022/07/28 12:11:17;;;;;;;3.75;1.33;;;20.30;99.90;;;;;;5097644;28;20055;-72
2022/07/28 12:13:43;;;;;;;3.63;1.80;;;20.30;99.90;;;;;;5097569;28;20048;-70
2022/07/28 12:16:09;;;;;;;2.92;1.58;;;20.30;99.90;;;;;;5079891;28;20364;-71
2022/07/28 12:18:35;;;;;;;1.92;1.30;;;20.20;99.90;;;;;;5097475;28;20085;-70
2022/07/28 12:21:01;;;;;;;4.03;1.67;;;20.30;99.90;;;;;;5097236;28;20122;-69
2022/07/28 12:23:32;;;;;;;3.65;1.70;;;20.30;99.90;;;;;;5097471;28;20048;-71
2022/07/28 12:26:03;;;;;;;5.15;1.67;;;20.30;99.90;;;;;;5079582;28;20130;-70
2022/07/28 12:28:31;;;;;;;4.75;1.52;;;20.30;99.90;;;;;;5097051;28;20082;-71
2022/07/28 12:31:10;;;;;;;3.45;1.70;;;20.40;99.90;;;;;;5097378;28;20048;-71
2022/07/28 12:33:35;;;;;;;2.58;1.38;;;20.60;99.90;;;;;;5079471;28;20059;-70
2022/07/28 12:36:01;;;;;;;2.85;1.38;;;20.70;99.90;;;;;;5097070;28;20048;-69
2022/07/28 12:38:28;;;;;;;2.83;1.38;;;20.70;99.90;;;;;;5097419;28;20044;-71
2022/07/28 12:40:53;;;;;;;3.88;1.58;;;20.80;99.90;;;;;;5097149;28;20032;-72
2022/07/28 12:43:26;;;;;;;2.97;1.35;;;21.00;99.90;;;;;;5097219;28;20048;-70
2022/07/28 12:45:52;;;;;;;4.57;1.40;;;21.20;99.90;;;;;;5096952;28;20040;-70
2022/07/28 12:48:17;;;;;;;3.05;1.58;;;21.40;99.90;;;;;;5079273;28;20048;-72
2022/07/28 12:50:44;;;;;;;3.15;1.42;;;21.50;99.90;;;;;;5096918;28;20094;-69
2022/07/28 12:53:11;;;;;;;3.67;1.35;;;21.70;99.90;;;;;;5096698;28;20050;-70
2022/07/28 12:55:39;;;;;;;1.73;1.00;;;21.90;99.80;;;;;;5096832;28;20093;-69
2022/07/28 12:58:06;;;;;;;2.15;1.60;;;22.30;99.70;;;;;;5095680;28;20087;-72